sensor_id;sensor_type;location;lat;lon;timestamp;P1;P2;P0
42002;PMS7003;27693;50.506;30.832;2023-01-16T00:00:11;21.50;14.70;8.10
42002;PMS7003;27693;50.506;30.832;2023-01-16T00:01:13;27.10;22.70;14.10
42002;PMS7003;27693;50.506;30.832;2023-01-16T00:02:17;30.50;22.60;15.20
42002;PMS7003;27693;50.506;30.832;2023-01-16T00:03:20;27.70;18.50;13.10
42002;PMS7003;27693;50.506;30.832;2023-01-16T00:04:22;26.80;20.80;14.40
42002;PMS7003;27693;50.506;30.832;2023-01-16T00:05:24;27.40;18.70;12.90
42002;PMS7003;27693;50.506;30.832;2023-01-16T00:06:27;27.90;21.20;15.80
42002;PMS7003;27693;50.506;30.832;2023-01-16T00:07:30;27.30;21.70;16.10
42002;PMS7003;27693;50.506;30.832;2023-01-16T00:08:34;29.00;19.00;13.70
42002;PMS7003;27693;50.506;30.832;2023-01-16T00:09:36;23.20;14.30;12.10
42002;PMS7003;27693;50.506;30.832;2023-01-16T00:10:38;24.20;20.30;13.70
42002;PMS7003;27693;50.506;30.832;2023-01-16T00:11:41;18.00;13.70;10.30
42002;PMS7003;27693;50.506;30.832;2023-01-16T00:12:49;26.30;21.10;14.80
42002;PMS7003;27693;50.506;30.832;2023-01-16T00:13:50;18.50;13.20;8.20
42002;PMS7003;27693;50.506;30.832;2023-01-16T00:14:53;20.80;16.50;11.00
42002;PMS7003;27693;50.506;30.832;2023-01-16T00:15:55;25.70;19.20;14.30
42002;PMS7003;27693;50.506;30.832;2023-01-16T00:16:59;26.70;21.10;15.00
42002;PMS7003;27693;50.506;30.832;2023-01-16T00:18:01;22.90;18.00;13.30
42002;PMS7003;27693;50.506;30.832;2023-01-16T00:19:03;30.50;20.80;14.60
42002;PMS7003;27693;50.506;30.832;2023-01-16T00:20:07;25.90;17.00;10.10
42002;PMS7003;27693;50.506;30.832;2023-01-16T00:21:11;25.10;20.20;15.10
42002;PMS7003;27693;50.506;30.832;2023-01-16T00:22:14;22.55;18.27;13.00
42002;PMS7003;27693;50.506;30.832;2023-01-16T00:23:16;27.60;20.70;14.20
42002;PMS7003;27693;50.506;30.832;2023-01-16T00:24:18;18.20;16.00;10.40
42002;PMS7003;27693;50.506;30.832;2023-01-16T00:25:20;18.11;15.11;9.56
42002;PMS7003;27693;50.506;30.832;2023-01-16T00:26:23;23.20;18.10;12.80
42002;PMS7003;27693;50.506;30.832;2023-01-16T00:27:26;21.50;12.30;10.40
42002;PMS7003;27693;50.506;30.832;2023-01-16T00:28:28;25.80;18.30;12.30
42002;PMS7003;27693;50.506;30.832;2023-01-16T00:29:32;21.80;19.20;13.90
42002;PMS7003;27693;50.506;30.832;2023-01-16T00:30:34;24.60;18.80;13.10
42002;PMS7003;27693;50.506;30.832;2023-01-16T00:31:37;23.00;19.00;14.10
42002;PMS7003;27693;50.506;30.832;2023-01-16T00:32:39;23.20;16.50;12.60
42002;PMS7003;27693;50.506;30.832;2023-01-16T00:33:42;22.50;14.80;10.80
42002;PMS7003;27693;50.506;30.832;2023-01-16T00:34:44;23.50;16.40;12.30
42002;PMS7003;27693;50.506;30.832;2023-01-16T00:35:46;20.50;19.10;12.90
42002;PMS7003;27693;50.506;30.832;2023-01-16T00:36:49;18.00;15.73;11.73
42002;PMS7003;27693;50.506;30.832;2023-01-16T00:37:51;19.00;14.80;11.40
42002;PMS7003;27693;50.506;30.832;2023-01-16T00:38:54;22.80;19.70;14.10
42002;PMS7003;27693;50.506;30.832;2023-01-16T00:39:57;24.80;17.90;12.40
42002;PMS7003;27693;50.506;30.832;2023-01-16T00:41:00;21.50;17.30;13.00
42002;PMS7003;27693;50.506;30.832;2023-01-16T00:42:03;20.73;15.00;10.00
42002;PMS7003;27693;50.506;30.832;2023-01-16T00:43:06;24.73;17.36;12.09
42002;PMS7003;27693;50.506;30.832;2023-01-16T00:44:08;15.90;9.60;6.90
42002;PMS7003;27693;50.506;30.832;2023-01-16T00:45:11;22.50;17.20;11.40
42002;PMS7003;27693;50.506;30.832;2023-01-16T00:46:13;20.70;16.30;11.70
42002;PMS7003;27693;50.506;30.832;2023-01-16T00:47:15;20.30;16.40;10.70
42002;PMS7003;27693;50.506;30.832;2023-01-16T00:48:18;18.20;17.00;10.70
42002;PMS7003;27693;50.506;30.832;2023-01-16T00:49:20;19.90;13.60;10.00
42002;PMS7003;27693;50.506;30.832;2023-01-16T00:50:23;14.60;9.00;7.60
42002;PMS7003;27693;50.506;30.832;2023-01-16T00:51:25;23.60;17.20;12.00
42002;PMS7003;27693;50.506;30.832;2023-01-16T00:52:27;22.70;17.10;11.50
42002;PMS7003;27693;50.506;30.832;2023-01-16T00:53:29;18.30;14.30;10.40
42002;PMS7003;27693;50.506;30.832;2023-01-16T00:54:32;17.60;12.40;9.10
42002;PMS7003;27693;50.506;30.832;2023-01-16T00:55:35;22.40;17.20;12.50
42002;PMS7003;27693;50.506;30.832;2023-01-16T00:56:38;20.10;15.10;11.40
42002;PMS7003;27693;50.506;30.832;2023-01-16T00:57:40;20.80;17.10;12.00
42002;PMS7003;27693;50.506;30.832;2023-01-16T00:58:43;17.90;13.40;8.30
42002;PMS7003;27693;50.506;30.832;2023-01-16T00:59:45;14.70;13.40;9.50
42002;PMS7003;27693;50.506;30.832;2023-01-16T01:00:48;14.10;11.80;9.50
42002;PMS7003;27693;50.506;30.832;2023-01-16T01:01:51;18.30;14.80;9.40
42002;PMS7003;27693;50.506;30.832;2023-01-16T01:02:53;14.10;13.00;9.20
42002;PMS7003;27693;50.506;30.832;2023-01-16T01:03:57;20.60;12.50;8.30
42002;PMS7003;27693;50.506;30.832;2023-01-16T01:05:00;21.00;14.60;10.20
42002;PMS7003;27693;50.506;30.832;2023-01-16T01:06:10;18.00;14.00;10.80
42002;PMS7003;27693;50.506;30.832;2023-01-16T01:07:10;22.40;15.60;10.70
42002;PMS7003;27693;50.506;30.832;2023-01-16T01:08:13;19.50;14.00;9.40
42002;PMS7003;27693;50.506;30.832;2023-01-16T01:10:24;21.30;16.10;12.00
42002;PMS7003;27693;50.506;30.832;2023-01-16T01:11:26;14.50;12.10;6.20
42002;PMS7003;27693;50.506;30.832;2023-01-16T01:12:28;21.33;14.89;10.56
42002;PMS7003;27693;50.506;30.832;2023-01-16T01:13:31;13.73;12.91;9.73
42002;PMS7003;27693;50.506;30.832;2023-01-16T01:14:33;21.50;13.60;10.20
42002;PMS7003;27693;50.506;30.832;2023-01-16T01:15:35;17.90;14.60;10.10
42002;PMS7003;27693;50.506;30.832;2023-01-16T01:16:37;18.40;14.80;11.00
42002;PMS7003;27693;50.506;30.832;2023-01-16T01:17:42;19.20;14.70;9.60
42002;PMS7003;27693;50.506;30.832;2023-01-16T01:18:44;22.90;17.60;12.90
42002;PMS7003;27693;50.506;30.832;2023-01-16T01:19:48;24.40;18.70;12.30
42002;PMS7003;27693;50.506;30.832;2023-01-16T01:20:51;22.10;16.90;11.00
42002;PMS7003;27693;50.506;30.832;2023-01-16T01:21:53;17.10;13.80;10.30
42002;PMS7003;27693;50.506;30.832;2023-01-16T01:22:55;18.30;14.30;11.10
42002;PMS7003;27693;50.506;30.832;2023-01-16T01:23:57;13.80;9.10;8.30
42002;PMS7003;27693;50.506;30.832;2023-01-16T01:25:00;11.70;10.00;7.20
42002;PMS7003;27693;50.506;30.832;2023-01-16T01:26:08;17.50;12.10;8.40
42002;PMS7003;27693;50.506;30.832;2023-01-16T01:27:12;17.70;14.90;11.70
42002;PMS7003;27693;50.506;30.832;2023-01-16T01:28:14;21.70;16.50;12.30
42002;PMS7003;27693;50.506;30.832;2023-01-16T01:29:18;16.30;14.60;10.40
42002;PMS7003;27693;50.506;30.832;2023-01-16T01:30:22;20.30;15.50;10.30
42002;PMS7003;27693;50.506;30.832;2023-01-16T01:31:24;18.10;12.00;8.40
42002;PMS7003;27693;50.506;30.832;2023-01-16T01:32:27;17.40;13.70;9.40
42002;PMS7003;27693;50.506;30.832;2023-01-16T01:33:29;15.30;11.20;8.10
42002;PMS7003;27693;50.506;30.832;2023-01-16T01:34:32;20.50;13.30;9.00
42002;PMS7003;27693;50.506;30.832;2023-01-16T01:35:36;19.50;15.80;9.20
42002;PMS7003;27693;50.506;30.832;2023-01-16T01:36:39;20.00;15.60;11.20
42002;PMS7003;27693;50.506;30.832;2023-01-16T01:37:41;19.90;15.20;10.40
42002;PMS7003;27693;50.506;30.832;2023-01-16T01:38:43;15.10;11.80;7.10
42002;PMS7003;27693;50.506;30.832;2023-01-16T01:39:47;20.10;15.80;9.70
42002;PMS7003;27693;50.506;30.832;2023-01-16T01:40:49;19.80;15.70;10.10
42002;PMS7003;27693;50.506;30.832;2023-01-16T01:41:51;16.50;11.70;8.40
42002;PMS7003;27693;50.506;30.832;2023-01-16T01:42:55;14.60;11.90;9.10
42002;PMS7003;27693;50.506;30.832;2023-01-16T01:43:58;21.70;13.70;8.90
42002;PMS7003;27693;50.506;30.832;2023-01-16T01:45:01;12.20;9.90;6.30
42002;PMS7003;27693;50.506;30.832;2023-01-16T01:46:18;13.30;11.20;7.10
42002;PMS7003;27693;50.506;30.832;2023-01-16T01:47:20;11.70;8.20;7.40
42002;PMS7003;27693;50.506;30.832;2023-01-16T01:48:29;15.40;11.90;7.80
42002;PMS7003;27693;50.506;30.832;2023-01-16T01:49:33;11.80;10.10;7.00
42002;PMS7003;27693;50.506;30.832;2023-01-16T01:51:53;14.40;9.10;5.70
42002;PMS7003;27693;50.506;30.832;2023-01-16T01:52:59;16.90;11.80;8.20
42002;PMS7003;27693;50.506;30.832;2023-01-16T01:54:07;12.20;8.20;5.10
42002;PMS7003;27693;50.506;30.832;2023-01-16T01:55:11;14.30;11.30;8.60
42002;PMS7003;27693;50.506;30.832;2023-01-16T01:56:17;15.30;12.70;7.10
42002;PMS7003;27693;50.506;30.832;2023-01-16T01:57:27;13.20;10.50;7.80
42002;PMS7003;27693;50.506;30.832;2023-01-16T08:44:13;24.80;21.00;14.00
42002;PMS7003;27693;50.506;30.832;2023-01-16T08:45:34;23.70;17.30;12.70
42002;PMS7003;27693;50.506;30.832;2023-01-16T08:46:59;23.80;16.70;12.80
42002;PMS7003;27693;50.506;30.832;2023-01-16T08:48:23;17.50;15.60;11.60
42002;PMS7003;27693;50.506;30.832;2023-01-16T08:49:46;21.30;14.60;10.80
42002;PMS7003;27693;50.506;30.832;2023-01-16T08:51:13;15.20;12.30;8.80
42002;PMS7003;27693;50.506;30.832;2023-01-16T08:52:23;18.10;14.80;9.70
42002;PMS7003;27693;50.506;30.832;2023-01-16T08:53:27;19.40;12.80;9.50
42002;PMS7003;27693;50.506;30.832;2023-01-16T08:54:29;21.20;16.20;10.90
42002;PMS7003;27693;50.506;30.832;2023-01-16T08:55:33;16.80;12.60;8.50
42002;PMS7003;27693;50.506;30.832;2023-01-16T08:56:35;20.70;14.20;10.30
42002;PMS7003;27693;50.506;30.832;2023-01-16T08:57:40;6.10;4.50;4.10
42002;PMS7003;27693;50.506;30.832;2023-01-16T08:58:42;12.90;9.60;8.30
42002;PMS7003;27693;50.506;30.832;2023-01-16T08:59:44;14.00;12.30;10.00
42002;PMS7003;27693;50.506;30.832;2023-01-16T09:00:46;14.00;10.50;8.30
42002;PMS7003;27693;50.506;30.832;2023-01-16T09:01:51;14.60;12.00;8.00
42002;PMS7003;27693;50.506;30.832;2023-01-16T09:02:54;13.73;10.18;8.36
42002;PMS7003;27693;50.506;30.832;2023-01-16T09:03:58;13.20;12.50;9.40
42002;PMS7003;27693;50.506;30.832;2023-01-16T09:05:02;14.73;11.09;7.73
42002;PMS7003;27693;50.506;30.832;2023-01-16T09:06:04;16.30;14.50;10.20
42002;PMS7003;27693;50.506;30.832;2023-01-16T09:07:07;14.20;12.40;8.50
42002;PMS7003;27693;50.506;30.832;2023-01-16T09:08:10;9.90;8.70;7.40
42002;PMS7003;27693;50.506;30.832;2023-01-16T09:09:13;14.80;13.90;9.10
42002;PMS7003;27693;50.506;30.832;2023-01-16T09:10:16;12.80;12.60;9.00
42002;PMS7003;27693;50.506;30.832;2023-01-16T09:11:19;17.09;13.18;10.00
42002;PMS7003;27693;50.506;30.832;2023-01-16T09:12:40;17.40;13.50;9.30
42002;PMS7003;27693;50.506;30.832;2023-01-16T09:14:01;16.60;12.50;8.40
42002;PMS7003;27693;50.506;30.832;2023-01-16T09:15:06;18.80;14.30;11.10
42002;PMS7003;27693;50.506;30.832;2023-01-16T09:16:09;14.40;10.40;8.30
42002;PMS7003;27693;50.506;30.832;2023-01-16T09:17:11;21.40;14.40;9.00
42002;PMS7003;27693;50.506;30.832;2023-01-16T09:18:14;16.20;12.50;8.40
42002;PMS7003;27693;50.506;30.832;2023-01-16T09:19:17;18.90;15.90;11.00
42002;PMS7003;27693;50.506;30.832;2023-01-16T09:20:20;13.70;8.70;4.70
42002;PMS7003;27693;50.506;30.832;2023-01-16T09:21:22;15.00;12.60;8.80
42002;PMS7003;27693;50.506;30.832;2023-01-16T09:22:26;18.50;15.60;10.20
42002;PMS7003;27693;50.506;30.832;2023-01-16T09:23:29;17.90;15.90;11.30
42002;PMS7003;27693;50.506;30.832;2023-01-16T09:24:32;18.40;13.90;10.00
42002;PMS7003;27693;50.506;30.832;2023-01-16T09:25:35;16.90;13.70;11.20
42002;PMS7003;27693;50.506;30.832;2023-01-16T09:26:37;16.20;11.70;7.80
42002;PMS7003;27693;50.506;30.832;2023-01-16T09:27:39;18.56;15.56;10.67
42002;PMS7003;27693;50.506;30.832;2023-01-16T09:28:41;20.10;15.70;11.10
42002;PMS7003;27693;50.506;30.832;2023-01-16T09:29:44;17.70;15.00;11.60
42002;PMS7003;27693;50.506;30.832;2023-01-16T09:30:47;16.40;14.50;10.70
42002;PMS7003;27693;50.506;30.832;2023-01-16T09:31:49;20.10;17.00;12.60
42002;PMS7003;27693;50.506;30.832;2023-01-16T09:32:51;20.50;15.30;9.40
42002;PMS7003;27693;50.506;30.832;2023-01-16T09:33:53;15.22;12.67;9.56
42002;PMS7003;27693;50.506;30.832;2023-01-16T09:34:56;16.30;14.20;9.60
42002;PMS7003;27693;50.506;30.832;2023-01-16T09:35:58;15.80;13.00;8.60
42002;PMS7003;27693;50.506;30.832;2023-01-16T09:37:01;21.30;18.00;12.40
42002;PMS7003;27693;50.506;30.832;2023-01-16T09:38:03;17.40;12.80;9.90
42002;PMS7003;27693;50.506;30.832;2023-01-16T09:39:05;25.80;19.10;14.90
42002;PMS7003;27693;50.506;30.832;2023-01-16T09:40:12;17.60;14.60;9.80
42002;PMS7003;27693;50.506;30.832;2023-01-16T09:41:18;17.20;15.80;11.10
42002;PMS7003;27693;50.506;30.832;2023-01-16T09:44:11;11.70;11.20;7.60
42002;PMS7003;27693;50.506;30.832;2023-01-16T09:45:16;24.30;17.20;10.00
42002;PMS7003;27693;50.506;30.832;2023-01-16T09:46:25;20.40;15.80;10.30
42002;PMS7003;27693;50.506;30.832;2023-01-16T09:47:30;18.00;13.70;9.90
42002;PMS7003;27693;50.506;30.832;2023-01-16T09:48:38;22.50;17.00;13.70
42002;PMS7003;27693;50.506;30.832;2023-01-16T09:49:58;21.50;16.60;12.60
42002;PMS7003;27693;50.506;30.832;2023-01-16T09:51:14;19.20;15.50;10.20
42002;PMS7003;27693;50.506;30.832;2023-01-16T09:52:19;15.70;14.10;10.00
42002;PMS7003;27693;50.506;30.832;2023-01-16T09:53:48;16.70;14.70;10.90
42002;PMS7003;27693;50.506;30.832;2023-01-16T09:55:21;20.40;13.10;9.80
42002;PMS7003;27693;50.506;30.832;2023-01-16T09:56:41;16.50;13.00;8.30
42002;PMS7003;27693;50.506;30.832;2023-01-16T09:58:07;15.60;14.10;9.20
42002;PMS7003;27693;50.506;30.832;2023-01-16T09:59:38;16.40;12.40;8.80
42002;PMS7003;27693;50.506;30.832;2023-01-16T10:00:43;16.50;13.60;9.30
42002;PMS7003;27693;50.506;30.832;2023-01-16T10:01:47;10.40;8.70;7.10
42002;PMS7003;27693;50.506;30.832;2023-01-16T10:02:52;13.30;12.50;8.30
42002;PMS7003;27693;50.506;30.832;2023-01-16T10:03:55;14.00;12.50;9.60
42002;PMS7003;27693;50.506;30.832;2023-01-16T10:05:00;16.40;11.50;8.50
42002;PMS7003;27693;50.506;30.832;2023-01-16T10:06:12;16.10;13.80;9.90
42002;PMS7003;27693;50.506;30.832;2023-01-16T10:07:27;14.40;11.70;7.50
42002;PMS7003;27693;50.506;30.832;2023-01-16T10:11:25;15.50;14.60;9.60
42002;PMS7003;27693;50.506;30.832;2023-01-16T10:12:31;14.80;11.70;8.60
42002;PMS7003;27693;50.506;30.832;2023-01-16T10:13:56;15.30;12.20;7.60
42002;PMS7003;27693;50.506;30.832;2023-01-16T10:15:31;19.60;16.60;11.40
42002;PMS7003;27693;50.506;30.832;2023-01-16T10:16:51;12.60;8.40;4.90
42002;PMS7003;27693;50.506;30.832;2023-01-16T16:34:24;38.40;27.20;19.40
42002;PMS7003;27693;50.506;30.832;2023-01-16T16:35:31;45.50;32.90;22.40
42002;PMS7003;27693;50.506;30.832;2023-01-16T16:36:40;49.20;32.60;24.00
42002;PMS7003;27693;50.506;30.832;2023-01-16T16:37:41;45.80;37.10;25.80
42002;PMS7003;27693;50.506;30.832;2023-01-16T16:38:47;42.10;33.50;23.70
42002;PMS7003;27693;50.506;30.832;2023-01-16T16:39:59;35.80;29.40;21.10
42002;PMS7003;27693;50.506;30.832;2023-01-16T16:43:47;29.80;23.10;16.60
42002;PMS7003;27693;50.506;30.832;2023-01-16T16:46:38;27.20;21.40;14.90
42002;PMS7003;27693;50.506;30.832;2023-01-16T16:47:27;27.30;21.30;14.70
42002;PMS7003;27693;50.506;30.832;2023-01-16T16:48:33;29.70;24.10;16.80
42002;PMS7003;27693;50.506;30.832;2023-01-16T16:49:37;26.90;21.80;16.20
42002;PMS7003;27693;50.506;30.832;2023-01-16T16:50:39;24.70;20.50;14.60
42002;PMS7003;27693;50.506;30.832;2023-01-16T16:51:42;22.40;21.10;16.70
42002;PMS7003;27693;50.506;30.832;2023-01-16T16:53:09;26.30;22.50;16.30
42002;PMS7003;27693;50.506;30.832;2023-01-16T16:54:18;25.90;20.00;14.30
42002;PMS7003;27693;50.506;30.832;2023-01-16T16:55:29;25.20;21.70;14.80
42002;PMS7003;27693;50.506;30.832;2023-01-16T16:56:37;21.30;18.20;14.30
42002;PMS7003;27693;50.506;30.832;2023-01-16T16:57:42;26.50;21.60;15.50
42002;PMS7003;27693;50.506;30.832;2023-01-16T16:58:47;25.60;20.10;12.90
42002;PMS7003;27693;50.506;30.832;2023-01-16T16:59:59;20.90;20.20;14.10
42002;PMS7003;27693;50.506;30.832;2023-01-16T17:01:02;24.70;20.90;14.20
42002;PMS7003;27693;50.506;30.832;2023-01-16T17:02:04;24.70;22.20;15.90
42002;PMS7003;27693;50.506;30.832;2023-01-16T17:03:11;28.40;22.50;16.30
42002;PMS7003;27693;50.506;30.832;2023-01-16T17:04:24;27.50;22.20;14.60
42002;PMS7003;27693;50.506;30.832;2023-01-16T17:05:27;23.50;21.30;14.70
42002;PMS7003;27693;50.506;30.832;2023-01-16T17:06:31;23.36;17.64;12.91
42002;PMS7003;27693;50.506;30.832;2023-01-16T17:07:37;26.80;21.40;15.40
42002;PMS7003;27693;50.506;30.832;2023-01-16T17:08:40;24.10;20.90;15.10
42002;PMS7003;27693;50.506;30.832;2023-01-16T17:09:42;26.00;21.50;14.50
42002;PMS7003;27693;50.506;30.832;2023-01-16T17:10:45;24.60;22.50;15.00
42002;PMS7003;27693;50.506;30.832;2023-01-16T17:11:50;22.20;20.20;14.40
42002;PMS7003;27693;50.506;30.832;2023-01-16T17:12:55;20.80;18.20;11.50
42002;PMS7003;27693;50.506;30.832;2023-01-16T17:13:58;21.00;18.27;12.82
42002;PMS7003;27693;50.506;30.832;2023-01-16T17:15:00;21.80;18.20;13.10
42002;PMS7003;27693;50.506;30.832;2023-01-16T17:16:02;22.10;18.00;12.70
42002;PMS7003;27693;50.506;30.832;2023-01-16T17:17:08;15.50;11.90;8.50
42002;PMS7003;27693;50.506;30.832;2023-01-16T17:18:13;24.90;16.80;11.90
42002;PMS7003;27693;50.506;30.832;2023-01-16T17:19:21;22.00;19.80;13.30
42002;PMS7003;27693;50.506;30.832;2023-01-16T17:20:25;14.00;10.60;8.80
42002;PMS7003;27693;50.506;30.832;2023-01-16T17:21:28;19.60;15.40;10.90
42002;PMS7003;27693;50.506;30.832;2023-01-16T17:22:31;22.27;18.91;11.55
42002;PMS7003;27693;50.506;30.832;2023-01-16T17:23:33;21.60;20.20;15.40
42002;PMS7003;27693;50.506;30.832;2023-01-16T17:24:36;22.60;17.00;12.40
42002;PMS7003;27693;50.506;30.832;2023-01-16T17:25:39;24.50;19.30;12.40
42002;PMS7003;27693;50.506;30.832;2023-01-16T17:26:43;16.80;16.00;11.40
42002;PMS7003;27693;50.506;30.832;2023-01-16T17:27:46;23.30;19.60;13.10
42002;PMS7003;27693;50.506;30.832;2023-01-16T17:28:53;19.00;14.40;9.70
42002;PMS7003;27693;50.506;30.832;2023-01-16T17:29:57;18.90;16.60;11.80
42002;PMS7003;27693;50.506;30.832;2023-01-16T17:30:59;26.00;20.80;14.00
42002;PMS7003;27693;50.506;30.832;2023-01-16T17:32:02;22.30;17.70;13.10
42002;PMS7003;27693;50.506;30.832;2023-01-16T17:33:09;21.80;16.10;11.30
42002;PMS7003;27693;50.506;30.832;2023-01-16T17:34:17;18.50;17.40;12.90
42002;PMS7003;27693;50.506;30.832;2023-01-16T17:35:17;28.60;20.40;14.40
42002;PMS7003;27693;50.506;30.832;2023-01-16T17:36:20;24.10;19.70;13.60
42002;PMS7003;27693;50.506;30.832;2023-01-16T17:37:26;25.90;21.40;15.50
42002;PMS7003;27693;50.506;30.832;2023-01-16T17:38:28;19.90;14.90;10.50
42002;PMS7003;27693;50.506;30.832;2023-01-16T17:39:30;26.00;19.60;14.00
42002;PMS7003;27693;50.506;30.832;2023-01-16T17:40:33;24.27;18.91;15.73
42002;PMS7003;27693;50.506;30.832;2023-01-16T17:41:37;24.60;18.80;12.70
42002;PMS7003;27693;50.506;30.832;2023-01-16T17:42:44;20.20;16.10;11.50
42002;PMS7003;27693;50.506;30.832;2023-01-16T17:44:08;23.70;18.30;13.40
42002;PMS7003;27693;50.506;30.832;2023-01-16T17:45:39;26.00;19.10;14.00
42002;PMS7003;27693;50.506;30.832;2023-01-16T17:46:53;24.90;22.30;16.10
42002;PMS7003;27693;50.506;30.832;2023-01-16T17:47:55;24.00;21.30;15.30
42002;PMS7003;27693;50.506;30.832;2023-01-16T17:48:58;24.60;16.80;10.60
42002;PMS7003;27693;50.506;30.832;2023-01-16T17:50:00;29.00;22.00;15.10
42002;PMS7003;27693;50.506;30.832;2023-01-16T17:51:21;23.20;20.30;13.40
42002;PMS7003;27693;50.506;30.832;2023-01-16T17:52:26;29.10;20.40;14.10
42002;PMS7003;27693;50.506;30.832;2023-01-16T17:53:29;27.60;22.30;16.10
42002;PMS7003;27693;50.506;30.832;2023-01-16T22:00:10;33.60;26.20;18.00
42002;PMS7003;27693;50.506;30.832;2023-01-16T22:01:13;29.60;24.60;18.00
42002;PMS7003;27693;50.506;30.832;2023-01-16T22:02:16;27.40;17.90;9.90
42002;PMS7003;27693;50.506;30.832;2023-01-16T22:03:19;28.70;23.00;17.40
42002;PMS7003;27693;50.506;30.832;2023-01-16T22:04:21;26.00;23.50;15.40
42002;PMS7003;27693;50.506;30.832;2023-01-16T22:05:24;28.10;21.90;15.60
42002;PMS7003;27693;50.506;30.832;2023-01-16T22:06:26;19.40;12.30;9.50
42002;PMS7003;27693;50.506;30.832;2023-01-16T22:07:29;14.40;8.40;3.80
42002;PMS7003;27693;50.506;30.832;2023-01-16T22:08:32;22.00;15.78;12.00
42002;PMS7003;27693;50.506;30.832;2023-01-16T22:09:35;21.70;16.30;11.10
42002;PMS7003;27693;50.506;30.832;2023-01-16T22:10:37;18.30;16.20;11.40
42002;PMS7003;27693;50.506;30.832;2023-01-16T22:11:41;19.30;13.70;8.80
42002;PMS7003;27693;50.506;30.832;2023-01-16T22:13:02;22.20;16.40;12.10
42002;PMS7003;27693;50.506;30.832;2023-01-16T22:14:23;19.60;15.30;10.10
42002;PMS7003;27693;50.506;30.832;2023-01-16T22:15:44;17.70;15.50;11.70
42002;PMS7003;27693;50.506;30.832;2023-01-16T22:17:09;18.50;15.30;11.80
42002;PMS7003;27693;50.506;30.832;2023-01-16T22:18:31;21.60;14.10;10.70
42002;PMS7003;27693;50.506;30.832;2023-01-16T22:19:36;22.50;15.90;10.80
42002;PMS7003;27693;50.506;30.832;2023-01-16T22:20:47;17.50;14.30;10.00
42002;PMS7003;27693;50.506;30.832;2023-01-16T22:21:59;14.10;11.80;10.30
42002;PMS7003;27693;50.506;30.832;2023-01-16T22:23:01;16.50;15.10;10.40
42002;PMS7003;27693;50.506;30.832;2023-01-16T22:24:04;15.10;13.80;9.80
42002;PMS7003;27693;50.506;30.832;2023-01-16T22:25:07;17.36;15.27;10.27
42002;PMS7003;27693;50.506;30.832;2023-01-16T22:26:10;17.40;14.10;9.20
42002;PMS7003;27693;50.506;30.832;2023-01-16T22:27:12;11.89;8.56;7.89
42002;PMS7003;27693;50.506;30.832;2023-01-16T22:28:14;11.11;10.78;7.67
42002;PMS7003;27693;50.506;30.832;2023-01-16T22:29:22;18.80;15.90;10.60
42002;PMS7003;27693;50.506;30.832;2023-01-16T22:30:25;16.50;14.00;8.90
42002;PMS7003;27693;50.506;30.832;2023-01-16T22:31:27;16.10;13.20;8.80
42002;PMS7003;27693;50.506;30.832;2023-01-16T22:32:30;16.45;14.00;9.73
42002;PMS7003;27693;50.506;30.832;2023-01-16T22:33:33;20.10;15.60;11.70
42002;PMS7003;27693;50.506;30.832;2023-01-16T22:34:35;16.30;13.20;8.80
42002;PMS7003;27693;50.506;30.832;2023-01-16T22:35:37;17.50;15.50;11.00
42002;PMS7003;27693;50.506;30.832;2023-01-16T22:36:40;11.09;11.09;7.64
42002;PMS7003;27693;50.506;30.832;2023-01-16T22:37:44;20.60;15.00;11.30
42002;PMS7003;27693;50.506;30.832;2023-01-16T22:38:46;7.80;6.00;5.60
42002;PMS7003;27693;50.506;30.832;2023-01-16T22:39:49;18.10;13.60;9.60
42002;PMS7003;27693;50.506;30.832;2023-01-16T22:40:51;15.90;14.60;10.40
42002;PMS7003;27693;50.506;30.832;2023-01-16T22:41:53;21.60;15.30;10.50
42002;PMS7003;27693;50.506;30.832;2023-01-16T22:42:55;17.00;13.00;9.78
42002;PMS7003;27693;50.506;30.832;2023-01-16T22:43:59;16.60;13.20;9.40
42002;PMS7003;27693;50.506;30.832;2023-01-16T22:45:19;12.10;11.60;8.20
42002;PMS7003;27693;50.506;30.832;2023-01-16T22:46:40;18.90;17.00;9.50
42002;PMS7003;27693;50.506;30.832;2023-01-16T22:47:43;15.55;13.27;9.64
42002;PMS7003;27693;50.506;30.832;2023-01-16T22:48:45;16.50;13.60;10.30
42002;PMS7003;27693;50.506;30.832;2023-01-16T22:49:47;14.78;13.11;9.67
42002;PMS7003;27693;50.506;30.832;2023-01-16T22:50:49;18.00;15.44;10.33
42002;PMS7003;27693;50.506;30.832;2023-01-16T22:51:51;18.20;14.90;9.50
42002;PMS7003;27693;50.506;30.832;2023-01-16T22:52:54;16.60;13.00;9.70
42002;PMS7003;27693;50.506;30.832;2023-01-16T22:53:56;13.70;13.70;9.30
42002;PMS7003;27693;50.506;30.832;2023-01-16T22:54:59;17.80;12.80;9.70
42002;PMS7003;27693;50.506;30.832;2023-01-16T22:56:01;17.90;15.70;10.90
42002;PMS7003;27693;50.506;30.832;2023-01-16T22:57:04;16.80;13.90;11.20
42002;PMS7003;27693;50.506;30.832;2023-01-16T22:58:07;18.00;13.27;9.45
42002;PMS7003;27693;50.506;30.832;2023-01-16T22:59:10;14.30;13.70;9.80
42002;PMS7003;27693;50.506;30.832;2023-01-16T23:00:14;16.20;14.30;10.90
42002;PMS7003;27693;50.506;30.832;2023-01-16T23:01:21;20.40;14.10;10.10
42002;PMS7003;27693;50.506;30.832;2023-01-16T23:02:25;18.10;13.80;9.70
42002;PMS7003;27693;50.506;30.832;2023-01-16T23:03:27;17.50;11.80;9.40
42002;PMS7003;27693;50.506;30.832;2023-01-16T23:04:30;16.70;13.20;9.20
42002;PMS7003;27693;50.506;30.832;2023-01-16T23:05:33;18.80;14.20;10.20
42002;PMS7003;27693;50.506;30.832;2023-01-16T23:06:35;15.30;12.20;9.70
42002;PMS7003;27693;50.506;30.832;2023-01-16T23:07:38;17.00;12.80;9.70
42002;PMS7003;27693;50.506;30.832;2023-01-16T23:08:40;13.80;12.80;10.00
42002;PMS7003;27693;50.506;30.832;2023-01-16T23:09:43;14.30;11.20;8.60
42002;PMS7003;27693;50.506;30.832;2023-01-16T23:10:46;16.20;13.90;10.40
42002;PMS7003;27693;50.506;30.832;2023-01-16T23:11:49;20.30;15.30;10.80
42002;PMS7003;27693;50.506;30.832;2023-01-16T23:12:53;16.70;15.60;11.60
42002;PMS7003;27693;50.506;30.832;2023-01-16T23:13:56;19.90;13.70;8.60
42002;PMS7003;27693;50.506;30.832;2023-01-16T23:15:00;17.10;14.10;9.80
42002;PMS7003;27693;50.506;30.832;2023-01-16T23:16:02;17.50;13.50;9.90
42002;PMS7003;27693;50.506;30.832;2023-01-16T23:17:06;14.00;12.00;9.70
42002;PMS7003;27693;50.506;30.832;2023-01-16T23:21:59;15.40;13.70;9.80
42002;PMS7003;27693;50.506;30.832;2023-01-16T23:23:01;14.90;10.80;7.20
42002;PMS7003;27693;50.506;30.832;2023-01-16T23:24:05;15.50;12.20;8.40
42002;PMS7003;27693;50.506;30.832;2023-01-16T23:25:10;16.30;13.20;7.70
42002;PMS7003;27693;50.506;30.832;2023-01-16T23:26:13;19.70;14.50;9.20